Littleton, CO (80122)

12:47 PM MDT on August 29, 2014 (GMT -0600)
Forest Park | Change Station
CLOSE
Current Station
Personal Weather Station
Location: Centennial, CO
Elevation: 5610 ft
Nearby Weather Stations

Elev 5610 ft 39.58 °N, 104.96 °W | Updated 9 seconds ago

Partly Cloudy
Partly Cloudy
79.9 °F
Feels Like 79 °F
N
4.0
Wind Variable Wind from NNE
Gusts 10.0 mph

Today
High -- | Low -- °F
--% Chance of Precip.
Yesterday
High -- | Low -- °F
Precip. -- in
6:25 AM 7:35 PM
Waxing Crescent, 16% visible
Pressure 29.97 in
Visibility 10.0 miles
Clouds Few 11000 ft
Few 15000 ft
Heat Index 79 °F
Dew Point 43 °F
Humidity 27%
Rainfall 0.00 in
Snow Depth Not available.
UV 9 out of 12
Pollen 10.40 out of 12
Ozone Good
PM2.5 Good
Flu Activity Not available.
METAR KAPA 291753Z 06004KT 10SM FEW110 FEW150TCU 25/06 A3014 RMK AO2 SLP149 TCU VC S-W T02500056 10250 20122 58003

More Conditions Fewer Conditions

Pressure 29.97 in
Visibility 10.0 miles
Clouds Few 11000 ft
Few 15000 ft
Heat Index 79 °F
Dew Point 43 °F
Humidity 27%
Rainfall 0.00 in
Snow Depth Not available.
UV 9 out of 12
Pollen 10.40 out of 12
Ozone Good
PM2.5 Good
Flu Activity Not available.
METAR KAPA 291753Z 06004KT 10SM FEW110 FEW150TCU 25/06 A3014 RMK AO2 SLP149 TCU VC S-W T02500056 10250 20122 58003

More Conditions Fewer Conditions

Nowcast | as of 11:52 am MDT on August 29, 2014

Isolated showers and thunderstorms developing over the foothills of Larimer...Boulder and Jefferson counties...will drift southeast across the urban corridor through early this afternoon. The storms will produce dangerous cloud to ground lightning...some brief light to moderate rainfall and wind gusts to 35 mph.

×

10-Day Weather Forecast

Almanac

Astronomy

Aug. 29, 2014 Rise Set
Actual Time 6:25 AM MDT 7:35 PM MDT
Civil Twilight 5:57 AM MDT 8:03 PM MDT
Nautical Twilight 5:24 AM MDT 8:36 PM MDT
Astronomical Twilight 4:49 AM MDT 9:10 PM MDT
Moon 10:16 AM MDT 9:35 PM MDT
Length of Visible Light 14h 05m
Length of Day
13h 10m
Tomorrow will be 2m 28s shorter.
Waxing Crescent, 16% of the Moon is Illuminated
Today
Waxing Crescent
Sep 2
First Quarter
Sep 8
Full
Sep 15
Last Quarter
Sep 24
New

Today's Extremes

State Highs State Lows

Community

WunderPhotos

Upload Photos

1,748,314 photos uploaded!

Nearby

Air Quality

  Air Quality AQ Index Pollutant
Yesterday Good
OZONE
Yesterday Good
PM10
Current Good
OZONE
Current Good
PM2.5
Friday Moderate
OZONE
Friday Good
PM2.5

Snow Depth

Station Depth Elevation
Niwot 0 in 9910 ft
University Camp 0 in 10300 ft
Jackwhacker Gulch 0 in 10960 ft
Loveland Basin 1 in 11400 ft
Wild Basin 0 in 9560 ft

Earthquake Activity

City Distance Mag. Time & Date
No recent earthquake activity has been reported nearby.
Minimum magnitude displayed is 2.5.

Coastal Water Temperatures

Place Temperature
No Stations Reporting

Nearby Weather Stations